Time;durP1;ratioP1;P1;durP2;ratioP2;P2;SDS_P1;SDS_P2;PMS_P1;PMS_P2;Temp;Humidity;BMP_temperature;BMP_pressure;BME280_temperature;BME280_humidity;BME280_pressure;Samples;Min_cycle;Max_cycle;Signal;HPM_P1;HPM_P2
2023/09/15 00:02:25;;;;;;;;;;;;;;;;;;5009966;28;4457;-56
2023/09/15 00:04:51;;;;;;;;;;;;;;;;;;5010027;28;4458;-56
2023/09/15 00:07:17;;;;;;;;;;;;;;;;;;5009676;28;3345;-56
2023/09/15 00:09:42;;;;;;;;;;;;;;;;;;5002722;28;5027;-56
2023/09/15 00:12:07;;;;;;;;;;;;;;;;;;5003129;28;5059;-55
2023/09/15 00:14:34;;;;;;;;;;;;;;;;;;5008062;28;4492;-56
2023/09/15 00:16:59;;;;;;;;;;;;;;;;;;5006868;28;4857;-56
2023/09/15 00:19:25;;;;;;;;;;;;;;;;;;5009001;28;1220;-56
2023/09/15 00:21:51;;;;;;;;;;;;;;;;;;5005729;28;4934;-56
2023/09/15 00:24:16;;;;;;;;;;;;;;;;;;5006752;28;5077;-55
2023/09/15 00:26:43;;;;;;;;;;;;;;;;;;4998102;28;5104;-55
2023/09/15 00:29:08;;;;;;;;;;;;;;;;;;5006899;28;4902;-56
2023/09/15 00:31:34;;;;;;;;;;;;;;;;;;5004055;28;1623;-56
2023/09/15 00:33:59;;;;;;;;;;;;;;;;;;5001393;28;5900;-55
2023/09/15 00:36:24;;;;;;;;;;;;;;;;;;5007372;28;5087;-55
2023/09/15 00:38:50;;;;;;;;;;;;;;;;;;5008788;28;4638;-55
2023/09/15 00:41:15;;;;;;;;;;;;;;;;;;5000701;28;5004;-56
2023/09/15 00:43:40;;;;;;;;;;;;;;;;;;5007303;28;1042;-55
2023/09/15 00:46:06;;;;;;;;;;;;;;;;;;5008522;28;4415;-56
2023/09/15 00:48:32;;;;;;;;;;;;;;;;;;5002270;28;4502;-55
2023/09/15 00:50:57;;;;;;;;;;;;;;;;;;5008910;28;5164;-55
2023/09/15 00:53:22;;;;;;;;;;;;;;;;;;4989462;28;5098;-55
2023/09/15 00:55:47;;;;;;;;;;;;;;;;;;5005148;28;1122;-56
2023/09/15 00:58:13;;;;;;;;;;;;;;;;;;5005211;28;4651;-56
2023/09/15 01:00:44;;;;;;;;;;;;;;;;;;5005218;28;5045;-55
2023/09/15 01:03:13;;;;;;;;;;;;;;;;;;5008805;28;5946;-55
2023/09/15 01:05:39;;;;;;;;;;;;;;;;;;5009066;28;4934;-55
2023/09/15 01:08:05;;;;;;;;;;;;;;;;;;5008966;28;5033;-55
2023/09/15 01:10:30;;;;;;;;;;;;;;;;;;5006844;28;1024;-55
2023/09/15 01:12:55;;;;;;;;;;;;;;;;;;5006330;28;4886;-55
2023/09/15 01:15:22;;;;;;;;;;;;;;;;;;5004524;28;5029;-55
2023/09/15 01:17:53;;;;;;;;;;;;;;;;;;4991079;28;4920;-55
2023/09/15 01:20:37;;;;;;;;;;;;;;;;;;5008028;28;4486;-53
2023/09/15 01:23:05;;;;;;;;;;;;;;;;;;5018818;28;5154;-55
2023/09/15 01:25:43;;;;;;;;;;;;;;;;;;5007288;28;1087;-54
2023/09/15 01:28:17;;;;;;;;;;;;;;;;;;4999954;28;5065;-54
2023/09/15 01:30:43;;;;;;;;;;;;;;;;;;5004762;28;4969;-55
2023/09/15 01:33:09;;;;;;;;;;;;;;;;;;5022996;28;4618;-55
2023/09/15 01:35:34;;;;;;;;;;;;;;;;;;5007064;28;4930;-55
2023/09/15 01:38:00;;;;;;;;;;;;;;;;;;5020251;28;5078;-55
2023/09/15 01:40:26;;;;;;;;;;;;;;;;;;5007452;28;1640;-56
2023/09/15 01:42:52;;;;;;;;;;;;;;;;;;5005182;28;4420;-55
2023/09/15 01:45:18;;;;;;;;;;;;;;;;;;5006089;28;4991;-56
2023/09/15 01:47:43;;;;;;;;;;;;;;;;;;5005083;28;5646;-55
2023/09/15 01:50:08;;;;;;;;;;;;;;;;;;5019385;28;4653;-55
2023/09/15 01:52:34;;;;;;;;;;;;;;;;;;4989877;28;3355;-55
2023/09/15 01:54:59;;;;;;;;;;;;;;;;;;5007065;28;4387;-56
2023/09/15 01:57:24;;;;;;;;;;;;;;;;;;5016772;28;5162;-55
2023/09/15 01:59:49;;;;;;;;;;;;;;;;;;5019313;28;5146;-56
2023/09/15 02:02:15;;;;;;;;;;;;;;;;;;5002194;28;4956;-54
2023/09/15 02:04:42;;;;;;;;;;;;;;;;;;5000290;28;2319;-55
2023/09/15 02:07:07;;;;;;;;;;;;;;;;;;5008029;28;5004;-55
2023/09/15 02:09:33;;;;;;;;;;;;;;;;;;5006445;28;4681;-55
2023/09/15 02:11:58;;;;;;;;;;;;;;;;;;5006750;28;5209;-56
2023/09/15 02:14:25;;;;;;;;;;;;;;;;;;5007807;28;5245;-56
2023/09/15 02:16:51;;;;;;;;;;;;;;;;;;5004313;28;5059;-55
2023/09/15 02:19:17;;;;;;;;;;;;;;;;;;5006834;28;1172;-55
2023/09/15 02:21:42;;;;;;;;;;;;;;;;;;5003988;28;4612;-55
2023/09/15 02:24:07;;;;;;;;;;;;;;;;;;5002138;28;4921;-55
2023/09/15 02:26:32;;;;;;;;;;;;;;;;;;5001595;28;4866;-55
2023/09/15 02:28:58;;;;;;;;;;;;;;;;;;5006210;28;4977;-55
2023/09/15 02:31:23;;;;;;;;;;;;;;;;;;5007867;28;3340;-56
2023/09/15 02:33:48;;;;;;;;;;;;;;;;;;5005069;28;5145;-56
2023/09/15 02:36:13;;;;;;;;;;;;;;;;;;5007664;28;4673;-56
2023/09/15 02:38:39;;;;;;;;;;;;;;;;;;5006469;28;5029;-55
2023/09/15 02:41:04;;;;;;;;;;;;;;;;;;5006564;28;4967;-55
2023/09/15 02:43:29;;;;;;;;;;;;;;;;;;5006705;28;1358;-55
2023/09/15 02:45:54;;;;;;;;;;;;;;;;;;5006497;28;4488;-56
2023/09/15 02:48:20;;;;;;;;;;;;;;;;;;5018616;28;5385;-55
2023/09/15 02:50:46;;;;;;;;;;;;;;;;;;5006888;28;4671;-55
2023/09/15 02:53:11;;;;;;;;;;;;;;;;;;5000629;28;4909;-55
2023/09/15 02:55:39;;;;;;;;;;;;;;;;;;5003782;28;1439;-55
2023/09/15 02:58:05;;;;;;;;;;;;;;;;;;5000669;28;4482;-54
2023/09/15 03:00:30;;;;;;;;;;;;;;;;;;5006618;28;4941;-55
2023/09/15 03:02:56;;;;;;;;;;;;;;;;;;5006400;28;5780;-55
2023/09/15 03:05:21;;;;;;;;;;;;;;;;;;5005932;28;5069;-56
2023/09/15 03:07:46;;;;;;;;;;;;;;;;;;5002338;28;3351;-55
2023/09/15 03:10:11;;;;;;;;;;;;;;;;;;5006493;28;4606;-56
2023/09/15 03:12:37;;;;;;;;;;;;;;;;;;5007200;28;4845;-55
2023/09/15 03:15:05;;;;;;;;;;;;;;;;;;5004619;28;4499;-55
2023/09/15 03:17:30;;;;;;;;;;;;;;;;;;5002252;28;5077;-53
2023/09/15 03:19:56;;;;;;;;;;;;;;;;;;4999974;28;4986;-55
2023/09/15 03:22:21;;;;;;;;;;;;;;;;;;5004291;28;1910;-55
2023/09/15 03:24:46;;;;;;;;;;;;;;;;;;5016122;28;4621;-55
2023/09/15 03:27:12;;;;;;;;;;;;;;;;;;4990959;28;4773;-56
2023/09/15 03:29:37;;;;;;;;;;;;;;;;;;5006679;28;5109;-55
2023/09/15 03:32:02;;;;;;;;;;;;;;;;;;5006862;28;5622;-54
2023/09/15 03:34:27;;;;;;;;;;;;;;;;;;5005568;28;4771;-55
2023/09/15 03:36:53;;;;;;;;;;;;;;;;;;5006874;28;5101;-56
2023/09/15 03:39:18;;;;;;;;;;;;;;;;;;5008879;28;4434;-55
2023/09/15 03:41:43;;;;;;;;;;;;;;;;;;5010164;28;4874;-55
2023/09/15 03:44:09;;;;;;;;;;;;;;;;;;5019399;28;5088;-55
2023/09/15 03:46:35;;;;;;;;;;;;;;;;;;5004511;28;2296;-55
2023/09/15 03:49:00;;;;;;;;;;;;;;;;;;5004758;28;5055;-55
2023/09/15 03:51:26;;;;;;;;;;;;;;;;;;5010662;28;5268;-54
2023/09/15 03:53:51;;;;;;;;;;;;;;;;;;5010661;28;5124;-56
2023/09/15 03:56:16;;;;;;;;;;;;;;;;;;5008370;28;5123;-55
2023/09/15 03:58:42;;;;;;;;;;;;;;;;;;5001380;28;2668;-55
2023/09/15 04:01:08;;;;;;;;;;;;;;;;;;5009599;28;4434;-55
2023/09/15 04:03:34;;;;;;;;;;;;;;;;;;5009529;28;4623;-54
2023/09/15 04:06:00;;;;;;;;;;;;;;;;;;5011771;28;5124;-55
2023/09/15 04:08:25;;;;;;;;;;;;;;;;;;5008713;28;5027;-55
2023/09/15 04:10:50;;;;;;;;;;;;;;;;;;5008634;28;5032;-55
2023/09/15 04:13:15;;;;;;;;;;;;;;;;;;5007343;28;1473;-56
2023/09/15 04:15:41;;;;;;;;;;;;;;;;;;5007140;28;5044;-55
2023/09/15 04:18:08;;;;;;;;;;;;;;;;;;5009340;28;5581;-55
2023/09/15 04:20:33;;;;;;;;;;;;;;;;;;5009934;28;4953;-55
2023/09/15 04:22:58;;;;;;;;;;;;;;;;;;4999283;28;4693;-56
2023/09/15 04:25:24;;;;;;;;;;;;;;;;;;5004695;28;1529;-56
2023/09/15 04:27:49;;;;;;;;;;;;;;;;;;5019764;28;4892;-56
2023/09/15 04:30:14;;;;;;;;;;;;;;;;;;5004194;28;5108;-56
2023/09/15 04:32:40;;;;;;;;;;;;;;;;;;5003589;28;6042;-55
2023/09/15 04:35:05;;;;;;;;;;;;;;;;;;5024026;28;4974;-54
2023/09/15 04:37:31;;;;;;;;;;;;;;;;;;5006030;28;3310;-54
2023/09/15 04:39:56;;;;;;;;;;;;;;;;;;5005127;28;5057;-55
2023/09/15 04:42:21;;;;;;;;;;;;;;;;;;5003595;28;5022;-55
2023/09/15 04:44:46;;;;;;;;;;;;;;;;;;5002987;28;5005;-54
2023/09/15 04:47:12;;;;;;;;;;;;;;;;;;5004643;28;4472;-54
2023/09/15 04:49:37;;;;;;;;;;;;;;;;;;5008846;28;1275;-54
2023/09/15 04:52:03;;;;;;;;;;;;;;;;;;5003832;28;4904;-55
2023/09/15 04:54:28;;;;;;;;;;;;;;;;;;5001252;28;5191;-54
2023/09/15 04:56:54;;;;;;;;;;;;;;;;;;5008042;28;5064;-55
2023/09/15 04:59:19;;;;;;;;;;;;;;;;;;5007702;28;4531;-53
2023/09/15 05:01:48;;;;;;;;;;;;;;;;;;5006429;28;3332;-54
2023/09/15 05:04:19;;;;;;;;;;;;;;;;;;5008103;28;4513;-54
2023/09/15 05:06:44;;;;;;;;;;;;;;;;;;5000437;28;4685;-55
2023/09/15 05:09:10;;;;;;;;;;;;;;;;;;5005834;28;4867;-55
2023/09/15 05:11:35;;;;;;;;;;;;;;;;;;5006758;28;5052;-54
2023/09/15 05:14:01;;;;;;;;;;;;;;;;;;5006360;28;4851;-55
2023/09/15 05:16:27;;;;;;;;;;;;;;;;;;5007669;28;1325;-55
2023/09/15 05:18:52;;;;;;;;;;;;;;;;;;5006383;28;4535;-55
2023/09/15 05:21:17;;;;;;;;;;;;;;;;;;5006702;28;4715;-55
2023/09/15 05:23:42;;;;;;;;;;;;;;;;;;5006697;28;4966;-55
2023/09/15 05:26:08;;;;;;;;;;;;;;;;;;5004753;28;5003;-54
2023/09/15 05:28:33;;;;;;;;;;;;;;;;;;5015901;28;1091;-54
2023/09/15 05:30:59;;;;;;;;;;;;;;;;;;5005227;28;4923;-56
2023/09/15 05:33:24;;;;;;;;;;;;;;;;;;5006852;28;5193;-55
2023/09/15 05:35:50;;;;;;;;;;;;;;;;;;5004526;28;5154;-55
2023/09/15 05:38:16;;;;;;;;;;;;;;;;;;4992876;28;4704;-55
2023/09/15 05:40:41;;;;;;;;;;;;;;;;;;5006181;28;2293;-53
2023/09/15 05:43:08;;;;;;;;;;;;;;;;;;5006619;28;4440;-54
2023/09/15 05:45:33;;;;;;;;;;;;;;;;;;5000577;28;4978;-54
2023/09/15 05:47:58;;;;;;;;;;;;;;;;;;5017047;28;4593;-57
2023/09/15 05:50:24;;;;;;;;;;;;;;;;;;4999361;28;5842;-55
2023/09/15 05:52:49;;;;;;;;;;;;;;;;;;5008036;28;1154;-54
2023/09/15 05:55:15;;;;;;;;;;;;;;;;;;4996851;28;4766;-55
2023/09/15 05:57:40;;;;;;;;;;;;;;;;;;5013126;28;4926;-55
2023/09/15 06:00:05;;;;;;;;;;;;;;;;;;5001072;28;4665;-55
2023/09/15 06:02:31;;;;;;;;;;;;;;;;;;5017433;28;5754;-55
2023/09/15 06:04:56;;;;;;;;;;;;;;;;;;4988642;28;5141;-56
2023/09/15 06:07:21;;;;;;;;;;;;;;;;;;5006260;28;3458;-56
2023/09/15 06:09:49;;;;;;;;;;;;;;;;;;5005460;28;5041;-57
2023/09/15 06:12:15;;;;;;;;;;;;;;;;;;5005913;28;4728;-56
2023/09/15 06:14:40;;;;;;;;;;;;;;;;;;5006456;28;4499;-57
2023/09/15 06:17:05;;;;;;;;;;;;;;;;;;5005477;28;5116;-56
2023/09/15 06:19:30;;;;;;;;;;;;;;;;;;5005890;28;3307;-56
2023/09/15 06:21:56;;;;;;;;;;;;;;;;;;5007652;28;4614;-56
2023/09/15 06:24:21;;;;;;;;;;;;;;;;;;5004645;28;5158;-56
2023/09/15 06:26:47;;;;;;;;;;;;;;;;;;5004914;28;5069;-57
2023/09/15 06:29:15;;;;;;;;;;;;;;;;;;5006161;28;4476;-56
2023/09/15 06:31:41;;;;;;;;;;;;;;;;;;5007865;28;3583;-57
2023/09/15 06:34:06;;;;;;;;;;;;;;;;;;4987257;28;4876;-55
2023/09/15 06:36:32;;;;;;;;;;;;;;;;;;5004269;28;4975;-56
2023/09/15 06:38:57;;;;;;;;;;;;;;;;;;4999961;28;4969;-56
2023/09/15 06:41:22;;;;;;;;;;;;;;;;;;5020110;28;5061;-56
2023/09/15 06:43:48;;;;;;;;;;;;;;;;;;5005467;28;3687;-56
2023/09/15 06:46:18;;;;;;;;;;;;;;;;;;5004793;28;4886;-56
2023/09/15 06:48:43;;;;;;;;;;;;;;;;;;4988944;28;5435;-56
2023/09/15 06:51:09;;;;;;;;;;;;;;;;;;5001383;28;4478;-56
2023/09/15 06:53:34;;;;;;;;;;;;;;;;;;5003725;28;5039;-56
2023/09/15 06:55:59;;;;;;;;;;;;;;;;;;5002769;28;4683;-56
2023/09/15 06:58:24;;;;;;;;;;;;;;;;;;5002726;28;1117;-56
2023/09/15 07:00:50;;;;;;;;;;;;;;;;;;5002928;28;4873;-56
2023/09/15 07:03:16;;;;;;;;;;;;;;;;;;5004572;28;5917;-56
2023/09/15 07:05:41;;;;;;;;;;;;;;;;;;5001257;28;5132;-56
2023/09/15 07:08:06;;;;;;;;;;;;;;;;;;5004308;28;5067;-56
2023/09/15 07:10:32;;;;;;;;;;;;;;;;;;5005565;28;3291;-56
2023/09/15 07:12:58;;;;;;;;;;;;;;;;;;5001448;28;4524;-56
2023/09/15 07:15:23;;;;;;;;;;;;;;;;;;5004624;28;5269;-55
2023/09/15 07:17:48;;;;;;;;;;;;;;;;;;5011185;28;5271;-56
2023/09/15 07:20:13;;;;;;;;;;;;;;;;;;4998190;28;4639;-56
2023/09/15 07:22:40;;;;;;;;;;;;;;;;;;5010006;28;1914;-56
2023/09/15 07:25:05;;;;;;;;;;;;;;;;;;5010668;28;5227;-56
2023/09/15 07:27:31;;;;;;;;;;;;;;;;;;5009487;28;4950;-56
2023/09/15 07:29:56;;;;;;;;;;;;;;;;;;5010904;28;4857;-56
2023/09/15 07:32:21;;;;;;;;;;;;;;;;;;5009200;28;5061;-55
2023/09/15 07:34:46;;;;;;;;;;;;;;;;;;5008858;28;4823;-55
2023/09/15 07:37:12;;;;;;;;;;;;;;;;;;5009533;28;4850;-55
2023/09/15 07:39:37;;;;;;;;;;;;;;;;;;5010763;28;5027;-56
2023/09/15 07:42:07;;;;;;;;;;;;;;;;;;5007013;28;4943;-56
2023/09/15 07:44:32;;;;;;;;;;;;;;;;;;5009307;28;4662;-55
2023/09/15 07:46:58;;;;;;;;;;;;;;;;;;5006435;28;5129;-55
2023/09/15 07:49:23;;;;;;;;;;;;;;;;;;5008334;28;1207;-55
2023/09/15 07:51:50;;;;;;;;;;;;;;;;;;5009423;28;5044;-56
2023/09/15 07:54:15;;;;;;;;;;;;;;;;;;5000991;28;4689;-56
2023/09/15 07:56:41;;;;;;;;;;;;;;;;;;5004543;28;5007;-55
2023/09/15 07:59:07;;;;;;;;;;;;;;;;;;5007622;28;5071;-56
2023/09/15 08:01:33;;;;;;;;;;;;;;;;;;5006106;28;3395;-56
2023/09/15 08:03:58;;;;;;;;;;;;;;;;;;5009682;28;5094;-56
2023/09/15 08:06:25;;;;;;;;;;;;;;;;;;5009703;28;4850;-56
2023/09/15 08:08:50;;;;;;;;;;;;;;;;;;5008609;28;5051;-56
2023/09/15 08:11:15;;;;;;;;;;;;;;;;;;5009647;28;4661;-56
2023/09/15 08:13:40;;;;;;;;;;;;;;;;;;5007674;28;3324;-56
2023/09/15 08:16:06;;;;;;;;;;;;;;;;;;5001966;28;5025;-55
2023/09/15 08:18:31;;;;;;;;;;;;;;;;;;5005646;28;5103;-56
2023/09/15 08:20:56;;;;;;;;;;;;;;;;;;5006529;28;4491;-56
2023/09/15 08:23:22;;;;;;;;;;;;;;;;;;4998707;28;5349;-54
2023/09/15 08:25:47;;;;;;;;;;;;;;;;;;5010431;28;1264;-57
2023/09/15 08:28:12;;;;;;;;;;;;;;;;;;5000433;28;4995;-54
2023/09/15 08:30:37;;;;;;;;;;;;;;;;;;5003186;28;5090;-55
2023/09/15 08:33:03;;;;;;;;;;;;;;;;;;5005534;28;5276;-55
2023/09/15 08:35:29;;;;;;;;;;;;;;;;;;5007821;28;5036;-57
2023/09/15 08:37:54;;;;;;;;;;;;;;;;;;5008409;28;5032;-55
2023/09/15 08:40:19;;;;;;;;;;;;;;;;;;5009301;28;1104;-54
2023/09/15 08:42:45;;;;;;;;;;;;;;;;;;5007664;28;5081;-55
2023/09/15 08:45:10;;;;;;;;;;;;;;;;;;5009494;28;4642;-55
2023/09/15 08:47:36;;;;;;;;;;;;;;;;;;5024223;28;4525;-54
2023/09/15 08:50:03;;;;;;;;;;;;;;;;;;5020414;28;5019;-55
2023/09/15 08:52:28;;;;;;;;;;;;;;;;;;5007938;28;1296;-55
2023/09/15 08:54:54;;;;;;;;;;;;;;;;;;5024298;28;4898;-54
2023/09/15 08:57:19;;;;;;;;;;;;;;;;;;5001458;28;5076;-56
2023/09/15 08:59:44;;;;;;;;;;;;;;;;;;5001753;28;5081;-55
2023/09/15 09:02:10;;;;;;;;;;;;;;;;;;5004793;28;4690;-54
2023/09/15 09:04:35;;;;;;;;;;;;;;;;;;5016657;28;1518;-55
2023/09/15 09:07:00;;;;;;;;;;;;;;;;;;5004075;28;4996;-55
2023/09/15 09:09:25;;;;;;;;;;;;;;;;;;5007197;28;5115;-54
2023/09/15 09:11:51;;;;;;;;;;;;;;;;;;5001206;28;5090;-55
2023/09/15 09:14:16;;;;;;;;;;;;;;;;;;5003595;28;4467;-57
2023/09/15 09:16:42;;;;;;;;;;;;;;;;;;5004308;28;3279;-55
2023/09/15 09:19:08;;;;;;;;;;;;;;;;;;5003548;28;5266;-56
2023/09/15 09:21:34;;;;;;;;;;;;;;;;;;4997473;28;5040;-55
2023/09/15 09:23:59;;;;;;;;;;;;;;;;;;4989180;28;4577;-55
2023/09/15 09:26:24;;;;;;;;;;;;;;;;;;5002065;28;5269;-56
2023/09/15 09:28:54;;;;;;;;;;;;;;;;;;5004731;28;5184;-52
2023/09/15 09:31:20;;;;;;;;;;;;;;;;;;5005264;28;1405;-56
2023/09/15 09:33:46;;;;;;;;;;;;;;;;;;5011219;28;4915;-54
2023/09/15 09:36:12;;;;;;;;;;;;;;;;;;5004398;28;4499;-57
2023/09/15 09:38:37;;;;;;;;;;;;;;;;;;5008894;28;4611;-56
2023/09/15 09:41:06;;;;;;;;;;;;;;;;;;5007572;28;5047;-57
2023/09/15 09:43:33;;;;;;;;;;;;;;;;;;5021649;28;1976;-56
2023/09/15 09:45:58;;;;;;;;;;;;;;;;;;5001416;28;4661;-56
2023/09/15 09:48:26;;;;;;;;;;;;;;;;;;5017568;28;4723;-55
2023/09/15 09:50:52;;;;;;;;;;;;;;;;;;5015970;28;5081;-56
2023/09/15 09:53:24;;;;;;;;;;;;;;;;;;4996947;28;4944;-55
2023/09/15 09:55:50;;;;;;;;;;;;;;;;;;5009896;28;1339;-56
2023/09/15 09:58:15;;;;;;;;;;;;;;;;;;5003146;28;4887;-60
2023/09/15 10:00:40;;;;;;;;;;;;;;;;;;5003839;28;5459;-56
2023/09/15 10:03:05;;;;;;;;;;;;;;;;;;5008371;28;4986;-56
2023/09/15 10:05:33;;;;;;;;;;;;;;;;;;5005719;28;5203;-57
2023/09/15 10:07:58;;;;;;;;;;;;;;;;;;5006672;28;4496;-57
2023/09/15 10:10:23;;;;;;;;;;;;;;;;;;5002477;28;1377;-56
2023/09/15 10:12:48;;;;;;;;;;;;;;;;;;5016901;28;4761;-56
2023/09/15 10:15:14;;;;;;;;;;;;;;;;;;5009019;28;4468;-56
2023/09/15 10:17:39;;;;;;;;;;;;;;;;;;5005913;28;5821;-57
2023/09/15 10:20:06;;;;;;;;;;;;;;;;;;5000269;28;4574;-57
2023/09/15 10:22:31;;;;;;;;;;;;;;;;;;4991376;28;1934;-55
2023/09/15 10:24:57;;;;;;;;;;;;;;;;;;5014991;28;4901;-57
2023/09/15 10:27:22;;;;;;;;;;;;;;;;;;4993668;28;5123;-57
2023/09/15 10:29:48;;;;;;;;;;;;;;;;;;5001223;28;4966;-57
2023/09/15 10:32:16;;;;;;;;;;;;;;;;;;5006669;28;5229;-57
2023/09/15 10:34:42;;;;;;;;;;;;;;;;;;5007470;28;4805;-57
2023/09/15 10:37:09;;;;;;;;;;;;;;;;;;5008043;28;4584;-56
2023/09/15 10:39:35;;;;;;;;;;;;;;;;;;4999138;28;4996;-57
2023/09/15 10:42:07;;;;;;;;;;;;;;;;;;5000396;28;5237;-57
2023/09/15 10:44:32;;;;;;;;;;;;;;;;;;5003954;28;5089;-56
2023/09/15 10:46:58;;;;;;;;;;;;;;;;;;5006452;28;4916;-57
2023/09/15 10:49:24;;;;;;;;;;;;;;;;;;5002797;28;2215;-57
2023/09/15 10:51:56;;;;;;;;;;;;;;;;;;5003351;28;5217;-57
2023/09/15 10:54:23;;;;;;;;;;;;;;;;;;5000675;28;5024;-56
2023/09/15 10:56:48;;;;;;;;;;;;;;;;;;5004153;28;5040;-57
2023/09/15 10:59:16;;;;;;;;;;;;;;;;;;4998438;28;5123;-56
2023/09/15 11:01:43;;;;;;;;;;;;;;;;;;5009407;28;3132;-57
2023/09/15 11:04:10;;;;;;;;;;;;;;;;;;4998932;28;5068;-56
2023/09/15 11:06:35;;;;;;;;;;;;;;;;;;5003768;28;4473;-57
2023/09/15 11:09:00;;;;;;;;;;;;;;;;;;5007201;28;5170;-56
2023/09/15 11:11:26;;;;;;;;;;;;;;;;;;5006067;28;5123;-57
2023/09/15 11:13:51;;;;;;;;;;;;;;;;;;5002228;28;5110;-55
2023/09/15 11:16:17;;;;;;;;;;;;;;;;;;5005241;28;1069;-56
2023/09/15 11:18:44;;;;;;;;;;;;;;;;;;4999923;28;5038;-56
2023/09/15 11:21:12;;;;;;;;;;;;;;;;;;5003403;28;5004;-56
2023/09/15 11:23:37;;;;;;;;;;;;;;;;;;5005092;28;5206;-56
2023/09/15 11:26:03;;;;;;;;;;;;;;;;;;4987323;28;5119;-56
2023/09/15 11:28:32;;;;;;;;;;;;;;;;;;4999418;28;3289;-56
2023/09/15 11:30:58;;;;;;;;;;;;;;;;;;5001924;28;4487;-57
2023/09/15 11:33:23;;;;;;;;;;;;;;;;;;4999179;28;4839;-56
2023/09/15 11:35:49;;;;;;;;;;;;;;;;;;5005154;28;5060;-57
2023/09/15 11:38:14;;;;;;;;;;;;;;;;;;4999026;28;5082;-57
2023/09/15 11:40:44;;;;;;;;;;;;;;;;;;5014533;28;3180;-57
2023/09/15 11:43:10;;;;;;;;;;;;;;;;;;4999590;28;4582;-56
2023/09/15 11:45:35;;;;;;;;;;;;;;;;;;4999831;28;5019;-57
2023/09/15 11:48:00;;;;;;;;;;;;;;;;;;4981849;28;5126;-56
2023/09/15 11:50:26;;;;;;;;;;;;;;;;;;5003323;28;4840;-57
2023/09/15 11:52:51;;;;;;;;;;;;;;;;;;4989631;28;5022;-57
2023/09/15 11:55:17;;;;;;;;;;;;;;;;;;5016718;28;1583;-56
2023/09/15 11:57:43;;;;;;;;;;;;;;;;;;4999267;28;5076;-57
2023/09/15 12:00:09;;;;;;;;;;;;;;;;;;5003749;28;4461;-57
2023/09/15 12:02:34;;;;;;;;;;;;;;;;;;5006020;28;5074;-56
2023/09/15 12:04:59;;;;;;;;;;;;;;;;;;5020049;28;4993;-57
2023/09/15 12:07:24;;;;;;;;;;;;;;;;;;5004563;28;1346;-56
2023/09/15 12:09:50;;;;;;;;;;;;;;;;;;5005311;28;5044;-57
2023/09/15 12:12:16;;;;;;;;;;;;;;;;;;5020364;28;5159;-56
2023/09/15 12:14:42;;;;;;;;;;;;;;;;;;5020837;28;5085;-56
2023/09/15 12:17:08;;;;;;;;;;;;;;;;;;5005183;28;4973;-56
2023/09/15 12:19:36;;;;;;;;;;;;;;;;;;5003003;28;3273;-56
2023/09/15 12:22:02;;;;;;;;;;;;;;;;;;5003678;28;5112;-55
2023/09/15 12:24:28;;;;;;;;;;;;;;;;;;5004348;28;4959;-56
2023/09/15 12:26:54;;;;;;;;;;;;;;;;;;5006462;28;4994;-56
2023/09/15 12:29:21;;;;;;;;;;;;;;;;;;5001831;28;4529;-56
2023/09/15 12:31:47;;;;;;;;;;;;;;;;;;5003036;28;3341;-56
2023/09/15 12:34:19;;;;;;;;;;;;;;;;;;5018122;28;5061;-56
2023/09/15 12:36:47;;;;;;;;;;;;;;;;;;5002959;28;5046;-55
2023/09/15 12:39:13;;;;;;;;;;;;;;;;;;5002348;28;4993;-56
2023/09/15 12:41:38;;;;;;;;;;;;;;;;;;5001265;28;5060;-56
2023/09/15 12:44:03;;;;;;;;;;;;;;;;;;5003133;28;5308;-56
2023/09/15 12:46:29;;;;;;;;;;;;;;;;;;5006612;28;1390;-56
2023/09/15 12:48:54;;;;;;;;;;;;;;;;;;5003110;28;5201;-55
2023/09/15 12:51:19;;;;;;;;;;;;;;;;;;5003666;28;5090;-57
2023/09/15 12:53:44;;;;;;;;;;;;;;;;;;5002174;28;4550;-57
2023/09/15 12:56:10;;;;;;;;;;;;;;;;;;5001935;28;5084;-56
2023/09/15 12:58:35;;;;;;;;;;;;;;;;;;4990127;28;3250;-56
2023/09/15 13:01:00;;;;;;;;;;;;;;;;;;5003592;28;5082;-56
2023/09/15 13:03:25;;;;;;;;;;;;;;;;;;4998720;28;5234;-56
2023/09/15 13:05:52;;;;;;;;;;;;;;;;;;5005385;28;4508;-56
2023/09/15 13:08:17;;;;;;;;;;;;;;;;;;5002717;28;5145;-56
2023/09/15 13:10:42;;;;;;;;;;;;;;;;;;5003718;28;3236;-57
2023/09/15 13:13:08;;;;;;;;;;;;;;;;;;5002306;28;4842;-56
2023/09/15 13:15:34;;;;;;;;;;;;;;;;;;4999775;28;4883;-61
2023/09/15 13:17:59;;;;;;;;;;;;;;;;;;5002001;28;4673;-57
2023/09/15 13:20:24;;;;;;;;;;;;;;;;;;4998356;28;4492;-60
2023/09/15 13:22:49;;;;;;;;;;;;;;;;;;4999212;28;3455;-57
2023/09/15 13:25:15;;;;;;;;;;;;;;;;;;4996491;28;5151;-64
2023/09/15 13:27:42;;;;;;;;;;;;;;;;;;5002186;28;5117;-64
2023/09/15 13:30:11;;;;;;;;;;;;;;;;;;4999501;28;4663;-63
2023/09/15 13:32:37;;;;;;;;;;;;;;;;;;5002703;28;5072;-62
2023/09/15 13:35:02;;;;;;;;;;;;;;;;;;5001207;28;4787;-62
2023/09/15 13:37:28;;;;;;;;;;;;;;;;;;5002537;28;1377;-62
2023/09/15 13:39:53;;;;;;;;;;;;;;;;;;5006113;28;4855;-62
2023/09/15 13:42:28;;;;;;;;;;;;;;;;;;5003115;28;5076;-62
2023/09/15 13:44:53;;;;;;;;;;;;;;;;;;5003133;28;4640;-62
2023/09/15 13:47:18;;;;;;;;;;;;;;;;;;4999818;28;5390;-62
2023/09/15 13:49:44;;;;;;;;;;;;;;;;;;4999339;28;1409;-61
2023/09/15 13:52:09;;;;;;;;;;;;;;;;;;5002277;28;5115;-63
2023/09/15 13:54:34;;;;;;;;;;;;;;;;;;4985181;28;5069;-63
2023/09/15 13:56:59;;;;;;;;;;;;;;;;;;5000246;28;5149;-63
2023/09/15 13:59:25;;;;;;;;;;;;;;;;;;4999981;28;5186;-63
2023/09/15 14:01:50;;;;;;;;;;;;;;;;;;5003397;28;4665;-63
2023/09/15 14:04:17;;;;;;;;;;;;;;;;;;5005543;28;1530;-63
2023/09/15 14:06:44;;;;;;;;;;;;;;;;;;5017613;28;4884;-63
2023/09/15 14:09:10;;;;;;;;;;;;;;;;;;5004950;28;4489;-63
2023/09/15 14:11:37;;;;;;;;;;;;;;;;;;5001445;28;4660;-63
2023/09/15 14:14:03;;;;;;;;;;;;;;;;;;5003019;28;5079;-63
2023/09/15 14:16:28;;;;;;;;;;;;;;;;;;4991938;28;2154;-63
2023/09/15 14:18:53;;;;;;;;;;;;;;;;;;5003316;28;5036;-63
2023/09/15 14:21:19;;;;;;;;;;;;;;;;;;4999636;28;5184;-63
2023/09/15 14:23:44;;;;;;;;;;;;;;;;;;5015889;28;5327;-63
2023/09/15 14:26:10;;;;;;;;;;;;;;;;;;5002962;28;5024;-63
2023/09/15 14:28:35;;;;;;;;;;;;;;;;;;4998110;28;1449;-63
2023/09/15 14:31:01;;;;;;;;;;;;;;;;;;5005895;28;5107;-63
2023/09/15 14:33:26;;;;;;;;;;;;;;;;;;4999093;28;4682;-63
2023/09/15 14:35:51;;;;;;;;;;;;;;;;;;5000800;28;4854;-62
2023/09/15 14:38:17;;;;;;;;;;;;;;;;;;4995021;28;5130;-61
2023/09/15 14:40:42;;;;;;;;;;;;;;;;;;4997365;28;2709;-66
2023/09/15 14:43:07;;;;;;;;;;;;;;;;;;4995268;28;4997;-62
2023/09/15 14:45:32;;;;;;;;;;;;;;;;;;5001174;28;5095;-56
2023/09/15 14:48:02;;;;;;;;;;;;;;;;;;4999327;28;4885;-56
2023/09/15 14:50:29;;;;;;;;;;;;;;;;;;4989726;28;4957;-56
2023/09/15 14:52:54;;;;;;;;;;;;;;;;;;5019373;28;5190;-56
2023/09/15 14:55:19;;;;;;;;;;;;;;;;;;4997552;28;3352;-56
2023/09/15 14:57:44;;;;;;;;;;;;;;;;;;4992763;28;4554;-57
2023/09/15 15:00:10;;;;;;;;;;;;;;;;;;4998194;28;4473;-56
2023/09/15 15:02:36;;;;;;;;;;;;;;;;;;5001552;28;4633;-56
2023/09/15 15:05:01;;;;;;;;;;;;;;;;;;4991025;28;5037;-57
2023/09/15 15:07:26;;;;;;;;;;;;;;;;;;4999026;28;3465;-57
2023/09/15 15:09:51;;;;;;;;;;;;;;;;;;4998922;28;5003;-56
2023/09/15 15:12:17;;;;;;;;;;;;;;;;;;5004135;28;5080;-56
2023/09/15 15:14:42;;;;;;;;;;;;;;;;;;5006954;28;4585;-55
2023/09/15 15:17:08;;;;;;;;;;;;;;;;;;4997240;28;4533;-57
2023/09/15 15:19:33;;;;;;;;;;;;;;;;;;5003043;28;3355;-56
2023/09/15 15:21:58;;;;;;;;;;;;;;;;;;5004126;28;4635;-55
2023/09/15 15:24:24;;;;;;;;;;;;;;;;;;4990573;28;4819;-56
2023/09/15 15:26:49;;;;;;;;;;;;;;;;;;5002673;28;5136;-55
2023/09/15 15:29:14;;;;;;;;;;;;;;;;;;5003612;28;4510;-56
2023/09/15 15:31:39;;;;;;;;;;;;;;;;;;5000618;28;1091;-54
2023/09/15 15:34:04;;;;;;;;;;;;;;;;;;4999807;28;4945;-53
2023/09/15 15:36:30;;;;;;;;;;;;;;;;;;5009984;28;5038;-56
2023/09/15 15:38:55;;;;;;;;;;;;;;;;;;5009999;28;4504;-56
2023/09/15 15:41:21;;;;;;;;;;;;;;;;;;5009692;28;5080;-56
2023/09/15 15:43:46;;;;;;;;;;;;;;;;;;5010285;28;2010;-56
2023/09/15 15:46:11;;;;;;;;;;;;;;;;;;5009856;28;4596;-56
2023/09/15 15:48:37;;;;;;;;;;;;;;;;;;5002787;28;4448;-54
2023/09/15 15:51:03;;;;;;;;;;;;;;;;;;4988980;28;5238;-56
2023/09/15 15:53:31;;;;;;;;;;;;;;;;;;4973361;28;5293;-55
2023/09/15 15:55:56;;;;;;;;;;;;;;;;;;4986026;28;5024;-54
2023/09/15 15:58:22;;;;;;;;;;;;;;;;;;4989333;28;1388;-57
2023/09/15 16:00:47;;;;;;;;;;;;;;;;;;4980842;28;4486;-56
2023/09/15 16:03:12;;;;;;;;;;;;;;;;;;4990797;28;4927;-56
2023/09/15 16:05:39;;;;;;;;;;;;;;;;;;5001460;28;5082;-56
2023/09/15 16:08:04;;;;;;;;;;;;;;;;;;5001004;28;5169;-55
2023/09/15 16:10:31;;;;;;;;;;;;;;;;;;5003810;28;3338;-60
2023/09/15 16:12:56;;;;;;;;;;;;;;;;;;4984715;28;5078;-56
2023/09/15 16:15:22;;;;;;;;;;;;;;;;;;5005702;28;4534;-53
2023/09/15 16:17:47;;;;;;;;;;;;;;;;;;5005288;28;5101;-54
2023/09/15 16:20:13;;;;;;;;;;;;;;;;;;5008297;28;4615;-55
2023/09/15 16:22:38;;;;;;;;;;;;;;;;;;5004061;28;1914;-54
2023/09/15 16:25:04;;;;;;;;;;;;;;;;;;4991227;28;5089;-55
2023/09/15 16:27:29;;;;;;;;;;;;;;;;;;4991103;28;4457;-54
2023/09/15 16:29:55;;;;;;;;;;;;;;;;;;5005387;28;4663;-54
2023/09/15 16:32:20;;;;;;;;;;;;;;;;;;4996940;28;5013;-54
2023/09/15 16:34:45;;;;;;;;;;;;;;;;;;5007328;28;4819;-54
2023/09/15 16:37:11;;;;;;;;;;;;;;;;;;5008906;28;4469;-55
2023/09/15 16:39:36;;;;;;;;;;;;;;;;;;5009850;28;5030;-54
2023/09/15 16:42:02;;;;;;;;;;;;;;;;;;5006569;28;4877;-55
2023/09/15 16:44:28;;;;;;;;;;;;;;;;;;5007436;28;4489;-54
2023/09/15 16:46:55;;;;;;;;;;;;;;;;;;5003674;28;5100;-54
2023/09/15 16:49:20;;;;;;;;;;;;;;;;;;5006934;28;1126;-54
2023/09/15 16:51:45;;;;;;;;;;;;;;;;;;4999539;28;4708;-55
2023/09/15 16:54:11;;;;;;;;;;;;;;;;;;5009170;28;5089;-55